createdAt,value
2023-06-07T00:03:49.741Z,101088.31
2023-06-07T00:08:57.629Z,101087.24
2023-06-07T00:14:05.551Z,101077.73
2023-06-07T00:19:14.310Z,101079.05
2023-06-07T00:24:22.519Z,101080.96
2023-06-07T00:29:30.194Z,101085.23
2023-06-07T00:34:37.779Z,101087.36
2023-06-07T00:39:45.444Z,101095.98
2023-06-07T00:44:53.097Z,101087.67
2023-06-07T00:50:01.467Z,101083.34
2023-06-07T00:55:11.165Z,101078.02
2023-06-07T01:00:19.435Z,101074.42
2023-06-07T01:05:27.197Z,101073.98
2023-06-07T01:10:34.918Z,101071.75
2023-06-07T01:15:43.309Z,101066.71
2023-06-07T01:20:56.377Z,101061.41
2023-06-07T01:26:05.478Z,101057.70
2023-06-07T01:31:14.404Z,101057.98
2023-06-07T01:36:22.743Z,101058.48
2023-06-07T01:41:31.035Z,101061.96
2023-06-07T01:46:40.050Z,101062.70
2023-06-07T01:51:48.042Z,101062.70
2023-06-07T01:57:09.361Z,101057.54
2023-06-07T02:02:25.996Z,101053.45
2023-06-07T02:07:42.165Z,101048.44
2023-06-07T02:12:51.914Z,101042.09
2023-06-07T02:18:02.664Z,101046.14
2023-06-07T02:23:10.907Z,101043.29
2023-06-07T02:28:19.028Z,101041.66
2023-06-07T02:33:26.835Z,101039.62
2023-06-07T02:38:34.450Z,101047.55
2023-06-07T02:43:42.079Z,101050.90
2023-06-07T02:48:49.969Z,101050.80
2023-06-07T02:53:57.554Z,101051.27
2023-06-07T02:59:05.162Z,101052.80
2023-06-07T03:04:12.832Z,101053.92
2023-06-07T03:09:21.128Z,101059.98
2023-06-07T03:14:28.842Z,101057.42
2023-06-07T03:19:36.450Z,101055.77
2023-06-07T03:24:44.842Z,101052.61
2023-06-07T03:29:52.570Z,101059.80
2023-06-07T03:35:00.268Z,101058.04
2023-06-07T03:40:10.558Z,101056.98
2023-06-07T03:45:18.260Z,101069.45
2023-06-07T03:50:26.020Z,101072.19
2023-06-07T03:55:34.607Z,101060.11
2023-06-07T04:00:42.680Z,101075.45
2023-06-07T04:05:51.023Z,101075.77
2023-06-07T04:10:58.640Z,101075.80
2023-06-07T04:16:07.062Z,101075.70
2023-06-07T04:21:15.731Z,101075.65
2023-06-07T04:26:25.105Z,101074.82
2023-06-07T04:31:35.605Z,101070.70
2023-06-07T04:36:43.481Z,101077.41
2023-06-07T04:41:54.425Z,101085.06
2023-06-07T04:47:08.103Z,101085.00
2023-06-07T04:52:21.000Z,101092.41
2023-06-07T04:57:28.786Z,101093.03
2023-06-07T05:02:42.655Z,101090.71
2023-06-07T05:07:51.014Z,101093.43
2023-06-07T05:12:58.844Z,101096.44
2023-06-07T05:18:08.649Z,101095.41
2023-06-07T05:23:18.184Z,101091.87
2023-06-07T05:28:26.044Z,101094.52
2023-06-07T05:33:34.079Z,101093.64
2023-06-07T05:38:42.044Z,101088.50
2023-06-07T05:43:49.645Z,101089.79
2023-06-07T05:48:57.253Z,101092.02
2023-06-07T05:54:06.864Z,101095.64
2023-06-07T05:59:14.495Z,101090.48
2023-06-07T06:04:22.095Z,101094.30
2023-06-07T06:09:29.880Z,101100.30
2023-06-07T06:14:37.498Z,101100.37
2023-06-07T06:19:45.146Z,101100.97
2023-06-07T06:24:52.852Z,101106.06
2023-06-07T06:30:00.827Z,101111.88
2023-06-07T06:35:10.046Z,101108.71
2023-06-07T06:40:19.844Z,101112.50
2023-06-07T06:45:27.549Z,101109.26
2023-06-07T06:50:35.793Z,101112.54
2023-06-07T06:55:43.639Z,101111.63
2023-06-07T07:00:51.436Z,101115.91
2023-06-07T07:05:59.248Z,101117.06
2023-06-07T07:11:07.033Z,101123.81
2023-06-07T07:16:14.728Z,101124.08
2023-06-07T07:21:22.601Z,101125.73
2023-06-07T07:26:30.215Z,101123.17
2023-06-07T07:31:38.309Z,101124.18
2023-06-07T07:36:46.153Z,101132.61
2023-06-07T07:41:53.772Z,101133.06
2023-06-07T07:47:01.412Z,101128.11
2023-06-07T07:52:09.878Z,101135.59
2023-06-07T07:57:17.524Z,101129.95
2023-06-07T08:02:25.259Z,101127.07
2023-06-07T08:07:33.494Z,101126.95
2023-06-07T08:12:41.186Z,101127.55
2023-06-07T08:17:51.357Z,101119.70
2023-06-07T08:22:59.318Z,101122.83
2023-06-07T08:28:07.419Z,101125.03
2023-06-07T08:33:15.698Z,101123.80
2023-06-07T08:38:23.319Z,101125.36
2023-06-07T08:43:31.035Z,101118.92
2023-06-07T08:48:40.789Z,101127.08
2023-06-07T08:53:56.628Z,101132.31
2023-06-07T08:59:06.083Z,101123.69
2023-06-07T09:04:14.440Z,101124.59
2023-06-07T09:09:22.304Z,101125.05
2023-06-07T09:14:31.464Z,101134.11
2023-06-07T09:19:40.736Z,101133.42
2023-06-07T09:24:48.537Z,101135.14
2023-06-07T09:30:07.137Z,101131.92
2023-06-07T09:35:17.255Z,101140.90
2023-06-07T09:40:25.609Z,101134.94
2023-06-07T09:45:33.829Z,101129.70
2023-06-07T09:50:56.156Z,101127.38
2023-06-07T09:56:19.809Z,101129.32
2023-06-07T10:01:39.194Z,101128.40
2023-06-07T10:06:50.901Z,101114.95
2023-06-07T10:11:59.742Z,101111.16
2023-06-07T10:17:11.687Z,101108.83
2023-06-07T10:22:23.646Z,101105.22
2023-06-07T10:27:36.498Z,101103.58
2023-06-07T10:32:45.510Z,101100.16
2023-06-07T10:37:55.052Z,101098.10
2023-06-07T10:43:03.989Z,101094.23
2023-06-07T10:48:36.111Z,101091.96
2023-06-07T10:53:55.604Z,101092.09
2023-06-07T10:59:23.485Z,101090.27
2023-06-07T11:04:58.352Z,101094.17
2023-06-07T11:10:36.497Z,101084.20
2023-06-07T11:15:44.328Z,101085.73
2023-06-07T11:20:53.655Z,101078.02
2023-06-07T11:26:09.639Z,101074.22
2023-06-07T11:31:17.952Z,101072.48
2023-06-07T11:36:25.732Z,101071.20
2023-06-07T11:41:33.607Z,101066.34
2023-06-07T11:46:41.390Z,101068.06
2023-06-07T11:51:52.245Z,101070.24
2023-06-07T11:57:00.180Z,101066.10
2023-06-07T12:02:10.100Z,101055.25
2023-06-07T12:07:32.998Z,101048.84
2023-06-07T12:12:41.668Z,101045.69
2023-06-07T12:17:49.326Z,101049.61
2023-06-07T12:23:05.736Z,101040.73
2023-06-07T12:28:14.102Z,101033.79
2023-06-07T12:33:23.429Z,101033.80
2023-06-07T12:38:33.235Z,101031.96
2023-06-07T12:43:46.730Z,101029.90
2023-06-07T12:48:54.826Z,101031.74
2023-06-07T12:54:02.520Z,101018.42
2023-06-07T12:59:10.213Z,101011.11
2023-06-07T13:04:18.083Z,101018.66
2023-06-07T13:09:25.805Z,101017.80
2023-06-07T13:14:33.548Z,101014.64
2023-06-07T13:19:41.801Z,101011.91
2023-06-07T13:24:49.495Z,101001.33
2023-06-07T13:29:57.875Z,100997.42
2023-06-07T13:35:05.866Z,100996.80
2023-06-07T13:40:14.524Z,100998.77
2023-06-07T13:45:22.741Z,100996.81
2023-06-07T13:50:31.854Z,100998.02
2023-06-07T13:55:39.495Z,100992.20
2023-06-07T14:00:47.113Z,100982.12
2023-06-07T14:05:54.821Z,100980.19
2023-06-07T14:11:04.052Z,100976.27
2023-06-07T14:16:13.271Z,100971.67
2023-06-07T14:21:21.220Z,100974.60
2023-06-07T14:26:28.915Z,100972.52
2023-06-07T14:31:36.615Z,100966.43
2023-06-07T14:36:45.559Z,100962.20
2023-06-07T14:41:53.257Z,100958.45
2023-06-07T14:47:01.537Z,100955.92
2023-06-07T14:52:09.793Z,100955.85
2023-06-07T14:57:17.861Z,100948.84
2023-06-07T15:02:25.627Z,100946.55
2023-06-07T15:07:33.311Z,100947.96
2023-06-07T15:12:41.300Z,100944.13
2023-06-07T15:17:51.745Z,100946.41
2023-06-07T15:23:00.207Z,100941.54
2023-06-07T15:28:08.875Z,100933.12
2023-06-07T15:33:16.573Z,100934.41
2023-06-07T15:38:24.390Z,100935.59
2023-06-07T15:43:32.070Z,100929.73
2023-06-07T15:48:39.836Z,100934.41
2023-06-07T15:53:47.884Z,100936.84
2023-06-07T15:58:55.523Z,100936.34
2023-06-07T16:04:04.736Z,100928.84
2023-06-07T16:09:12.551Z,100928.71
2023-06-07T16:14:20.602Z,100928.02
2023-06-07T16:19:28.255Z,100924.23
2023-06-07T16:24:36.169Z,100926.37
2023-06-07T16:29:43.813Z,100927.33
2023-06-07T16:34:51.513Z,100927.03
2023-06-07T16:39:59.222Z,100920.11
2023-06-07T16:45:09.684Z,100915.65
2023-06-07T16:50:17.690Z,100918.98
2023-06-07T16:55:25.544Z,100908.80
2023-06-07T17:00:33.231Z,100911.50
2023-06-07T17:05:40.990Z,100910.30
2023-06-07T17:10:49.409Z,100911.80
2023-06-07T17:15:58.108Z,100914.95
2023-06-07T17:21:06.692Z,100915.54
2023-06-07T17:26:14.967Z,100920.81
2023-06-07T17:31:22.664Z,100922.66
2023-06-07T17:36:30.310Z,100928.42
2023-06-07T17:41:38.015Z,100928.38
2023-06-07T17:46:47.060Z,100925.20
2023-06-07T17:51:58.397Z,100934.39
2023-06-07T17:57:09.326Z,100932.56
2023-06-07T18:02:17.105Z,100933.95
2023-06-07T18:07:24.861Z,100936.50
2023-06-07T18:12:32.512Z,100934.05
2023-06-07T18:17:40.200Z,100936.89
2023-06-07T18:22:48.023Z,100937.01
2023-06-07T18:27:55.626Z,100941.20
2023-06-07T18:33:03.765Z,100941.14
2023-06-07T18:38:11.553Z,100942.33
2023-06-07T18:43:19.291Z,100947.74
2023-06-07T18:48:28.084Z,100945.18
2023-06-07T18:53:36.532Z,100946.61
2023-06-07T18:58:46.568Z,100945.51
2023-06-07T19:03:54.605Z,100949.70
2023-06-07T19:09:02.493Z,100948.27
2023-06-07T19:14:10.897Z,100952.42
2023-06-07T19:19:18.603Z,100957.27
2023-06-07T19:24:26.356Z,100955.48
2023-06-07T19:29:34.147Z,100962.20
2023-06-07T19:34:42.583Z,100961.77
2023-06-07T19:39:50.621Z,100964.74
2023-06-07T19:44:58.329Z,100974.56
2023-06-07T19:50:07.836Z,100973.14
2023-06-07T19:55:16.542Z,100979.31
2023-06-07T20:00:24.362Z,100976.77
2023-06-07T20:05:32.069Z,100972.38
2023-06-07T20:10:39.717Z,100968.31
2023-06-07T20:15:47.461Z,100969.66
2023-06-07T20:20:55.135Z,100969.01
2023-06-07T20:26:02.765Z,100964.03
2023-06-07T20:31:10.455Z,100957.48
2023-06-07T20:36:18.125Z,100956.35
2023-06-07T20:41:26.846Z,100955.38
2023-06-07T20:46:34.931Z,100962.24
2023-06-07T20:51:42.813Z,100965.55
2023-06-07T20:56:51.097Z,100971.34
2023-06-07T21:01:58.867Z,100968.57
2023-06-07T21:07:07.219Z,100969.39
2023-06-07T21:12:14.936Z,100969.45
2023-06-07T21:17:22.810Z,100968.27
2023-06-07T21:22:30.579Z,100969.63
2023-06-07T21:27:38.350Z,100971.25
2023-06-07T21:32:46.058Z,100970.30
2023-06-07T21:37:53.771Z,100971.67
2023-06-07T21:43:01.440Z,100970.23
2023-06-07T21:48:09.264Z,100969.17
2023-06-07T21:53:16.933Z,100968.17
2023-06-07T21:58:24.962Z,100968.19
2023-06-07T22:03:33.622Z,100967.63
2023-06-07T22:08:41.272Z,100968.02
2023-06-07T22:13:48.914Z,100969.69
2023-06-07T22:18:56.561Z,100970.10
2023-06-07T22:24:04.874Z,100967.98
2023-06-07T22:29:14.017Z,100966.71
2023-06-07T22:34:22.576Z,100966.20
2023-06-07T22:39:30.188Z,100981.58
2023-06-07T22:44:39.224Z,100985.53
2023-06-07T22:49:46.833Z,100983.98
2023-06-07T22:54:54.458Z,100985.05
2023-06-07T23:00:04.147Z,100976.23
2023-06-07T23:05:19.133Z,100977.84
2023-06-07T23:10:35.612Z,100976.70
2023-06-07T23:15:46.384Z,100978.56
2023-06-07T23:20:54.440Z,100978.40
2023-06-07T23:26:02.144Z,100974.49
2023-06-07T23:31:09.773Z,100969.56
2023-06-07T23:36:17.710Z,100967.06
2023-06-07T23:41:25.384Z,100970.02
2023-06-07T23:46:33.082Z,100971.81
2023-06-07T23:51:40.752Z,100967.73
2023-06-07T23:56:48.639Z,100966.76
